Time;durP1;ratioP1;P1;durP2;ratioP2;P2;SDS_P1;SDS_P2;PMS_P1;PMS_P2;Temp;Humidity;BMP_temperature;BMP_pressure;BME280_temperature;BME280_humidity;BME280_pressure;Samples;Min_cycle;Max_cycle;Signal;HPM_P1;HPM_P2
2021/10/08 00:00:07;;;;;;;23.83;12.30;;;;;;;7.46;100.00;102825.13;5068889;28;20024;-88
2021/10/08 00:02:40;;;;;;;19.52;12.63;;;;;;;7.38;100.00;102822.94;5069025;28;20033;-86
2021/10/08 00:05:07;;;;;;;19.42;11.05;;;;;;;7.31;100.00;102815.41;5067771;28;20028;-88
2021/10/08 00:07:32;;;;;;;;;;;;;;;7.26;100.00;102807.72;5068728;28;20036;-88
2021/10/08 00:09:58;;;;;;;;;;;;;;;7.26;100.00;102809.50;5051847;28;19981;-87
2021/10/08 00:12:23;;;;;;;17.77;10.50;;;;;;;7.21;100.00;102803.59;5050727;28;19916;-87
2021/10/08 00:14:49;;;;;;;27.30;14.95;;;;;;;7.29;100.00;102815.50;5034432;28;20395;-87
2021/10/08 00:17:14;;;;;;;25.00;13.90;;;;;;;7.34;100.00;102826.72;5034329;28;20438;-88
2021/10/08 00:19:39;;;;;;;34.43;16.37;;;;;;;7.38;100.00;102827.41;5034503;28;20421;-88
2021/10/08 00:22:05;;;;;;;40.63;20.60;;;;;;;7.34;100.00;102837.34;5035380;28;20028;-87
2021/10/08 00:24:30;;;;;;;34.00;16.65;;;;;;;7.19;100.00;102832.94;5035228;28;20040;-88
2021/10/08 00:26:56;;;;;;;30.93;16.23;;;;;;;7.10;100.00;102834.31;5051823;28;20052;-87
2021/10/08 00:29:21;;;;;;;23.23;12.50;;;;;;;7.06;100.00;102822.16;5034755;28;20020;-87
2021/10/08 00:31:47;;;;;;;22.53;13.77;;;;;;;7.07;100.00;102831.84;5051273;28;20125;-87
2021/10/08 00:34:12;;;;;;;23.67;14.70;;;;;;;7.05;100.00;102824.91;5067884;28;20335;-87
2021/10/08 00:36:38;;;;;;;26.05;13.30;;;;;;;7.01;100.00;102821.56;5034181;28;20086;-87
2021/10/08 00:39:04;;;;;;;19.77;11.50;;;;;;;6.95;100.00;102824.56;5051013;28;20050;-87
2021/10/08 00:41:30;;;;;;;25.70;15.38;;;;;;;7.01;100.00;102824.22;5067566;28;20059;-87
2021/10/08 00:43:56;;;;;;;24.88;13.75;;;;;;;6.97;100.00;102823.53;5051547;28;20040;-87
2021/10/08 00:46:22;;;;;;;23.00;13.10;;;;;;;6.97;100.00;102823.53;5051256;28;20078;-87
2021/10/08 00:48:52;;;;;;;21.45;12.38;;;;;;;6.92;100.00;102830.91;5067444;28;20036;-87
2021/10/08 00:51:19;;;;;;;28.25;13.10;;;;;;;6.93;100.00;102831.75;5050758;28;20040;-87
2021/10/08 00:53:45;;;;;;;20.90;12.52;;;;;;;6.89;100.00;102838.22;5067172;28;20105;-87
2021/10/08 00:56:11;;;;;;;23.80;12.07;;;;;;;6.82;100.00;102828.88;5067736;28;20036;-86
2021/10/08 00:58:38;;;;;;;22.75;12.43;;;;;;;6.79;100.00;102813.13;5033794;28;20036;-87
2021/10/08 01:38:59;;;;;;;42.67;17.95;;;;;;;6.30;100.00;102841.47;5071629;28;20487;-87
2021/10/08 01:41:27;;;;;;;26.48;14.32;;;;;;;6.27;100.00;102838.94;5054711;28;20028;-87
2021/10/08 01:43:53;;;;;;;24.30;13.53;;;;;;;6.24;100.00;102843.59;5072202;28;20539;-87
2021/10/08 01:46:18;;;;;;;30.63;16.25;;;;;;;6.27;100.00;102828.34;5037726;28;20047;-88
2021/10/08 01:48:45;;;;;;;23.45;13.02;;;;;;;6.25;100.00;102835.56;5070596;28;20047;-87
2021/10/08 01:51:10;;;;;;;33.03;16.38;;;;;;;6.30;100.00;102835.31;5070510;28;20016;-87
2021/10/08 01:53:40;;;;;;;27.98;14.57;;;;;;;6.26;100.00;102842.56;5054145;28;20280;-87
2021/10/08 01:56:06;;;;;;;29.25;15.32;;;;;;;6.22;100.00;102835.69;5070210;28;20024;-87
2021/10/08 01:58:44;;;;;;;27.80;14.20;;;;;;;6.23;100.00;102837.44;5068743;28;20131;-87
2021/10/08 02:01:10;;;;;;;27.88;14.25;;;;;;;6.27;100.00;102841.59;5036601;28;20112;-87
2021/10/08 02:03:36;;;;;;;32.08;16.27;;;;;;;6.24;100.00;102839.13;5037280;28;20193;-86
2021/10/08 02:06:03;;;;;;;43.42;19.90;;;;;;;6.28;100.00;102851.28;5054126;28;20032;-87
2021/10/08 02:08:32;;;;;;;285.15;35.67;;;;;;;6.30;100.00;102862.69;5054365;28;20038;-87
2021/10/08 02:11:01;;;;;;;137.82;23.55;;;;;;;6.32;100.00;102855.50;5037534;28;20098;-86
2021/10/08 02:13:29;;;;;;;246.90;28.63;;;;;;;6.26;100.00;102861.13;5037502;28;20036;-87
2021/10/08 02:15:54;;;;;;;432.13;41.70;;;;;;;6.30;100.00;102860.03;5070091;28;20020;-86
2021/10/08 02:18:20;;;;;;;34.35;17.60;;;;;;;6.33;100.00;102881.06;5037655;28;20051;-86
2021/10/08 02:20:47;;;;;;;34.13;17.52;;;;;;;6.27;100.00;102886.69;5036980;28;20450;-85
2021/10/08 02:23:12;;;;;;;31.13;17.50;;;;;;;6.08;100.00;102876.22;5053716;28;20039;-86
2021/10/08 02:25:41;;;;;;;33.55;17.02;;;;;;;6.06;100.00;102877.25;5036533;28;20052;-86
2021/10/08 02:28:07;;;;;;;34.60;16.83;;;;;;;5.97;100.00;102875.94;5036374;28;20028;-86
2021/10/08 02:30:32;;;;;;;28.05;14.32;;;;;;;5.93;100.00;102869.06;5070045;28;20119;-86
2021/10/08 02:32:59;;;;;;;28.80;14.85;;;;;;;5.87;100.00;102862.25;5071027;28;20040;-86
2021/10/08 02:35:24;;;;;;;29.20;14.50;;;;;;;5.97;100.00;102867.13;5052901;28;20044;-86
2021/10/08 02:37:50;;;;;;;25.30;13.02;;;;;;;5.94;100.00;102865.47;5053275;28;20035;-86
2021/10/08 02:40:15;;;;;;;33.13;14.57;;;;;;;5.93;100.00;102861.09;5052987;28;20471;-86
2021/10/08 02:42:41;;;;;;;24.13;12.50;;;;;;;5.90;100.00;102862.13;5052908;28;20072;-86
2021/10/08 02:45:07;;;;;;;23.57;13.20;;;;;;;5.92;100.00;102865.56;5053057;28;20538;-86
2021/10/08 02:47:32;;;;;;;32.85;14.70;;;;;;;5.95;100.00;102867.22;5069617;28;20361;-86
2021/10/08 02:49:58;;;;;;;25.25;11.70;;;;;;;5.97;100.00;102861.81;5053342;28;20087;-86
2021/10/08 02:52:24;;;;;;;23.37;11.73;;;;;;;5.92;100.00;102867.31;5052776;28;20029;-86
2021/10/08 02:54:49;;;;;;;25.73;13.52;;;;;;;6.00;100.00;102862.53;5052717;28;20601;-87
2021/10/08 02:57:14;;;;;;;25.20;13.63;;;;;;;5.91;100.00;102868.28;5052673;28;20120;-86
2021/10/08 02:59:40;;;;;;;23.10;13.57;;;;;;;5.91;100.00;102874.41;5036277;28;20457;-87
2021/10/08 03:02:05;;;;;;;20.90;11.63;;;;;;;5.85;100.00;102858.84;5035799;28;20317;-87
2021/10/08 03:04:31;;;;;;;45.40;18.77;;;;;;;5.91;100.00;102868.28;5036207;28;20028;-86
2021/10/08 03:06:57;;;;;;;51.08;20.23;;;;;;;6.04;100.00;102874.69;5068905;28;20040;-86
2021/10/08 03:09:24;;;;;;;32.55;14.95;;;;;;;6.03;100.00;102870.31;5052663;28;20036;-86
2021/10/08 03:11:50;;;;;;;33.28;14.70;;;;;;;6.06;100.00;102877.25;5036019;28;20077;-87
2021/10/08 03:14:15;;;;;;;42.85;15.18;;;;;;;6.06;100.00;102877.25;5052659;28;20123;-86
2021/10/08 03:16:41;;;;;;;37.08;17.67;;;;;;;6.04;100.00;102865.84;5052233;28;20373;-86
2021/10/08 03:19:07;;;;;;;400.35;35.33;;;;;;;6.13;100.00;102873.31;5035563;28;20040;-86
2021/10/08 03:21:33;;;;;;;31.07;15.80;;;;;;;6.27;100.00;102885.84;5036335;28;20036;-86
2021/10/08 03:23:58;;;;;;;32.38;16.67;;;;;;;6.19;100.00;102886.28;5052580;28;20291;-86
2021/10/08 03:26:24;;;;;;;33.75;16.00;;;;;;;6.19;100.00;102885.41;5069673;28;20068;-86
2021/10/08 03:28:50;;;;;;;31.58;16.73;;;;;;;6.20;100.00;102884.47;5051902;28;20040;-86
2021/10/08 03:31:17;;;;;;;352.92;33.47;;;;;;;6.29;100.00;102878.66;5052026;28;20120;-85
2021/10/08 03:33:43;;;;;;;37.85;18.30;;;;;;;6.40;100.00;102896.69;5051873;28;20312;-86
2021/10/08 03:36:16;;;;;;;35.53;17.25;;;;;;;6.38;100.00;102883.47;5069055;28;20111;-86
2021/10/08 03:38:42;;;;;;;36.50;17.88;;;;;;;6.37;100.00;102886.22;5034388;28;20139;-86
2021/10/08 03:41:14;;;;;;;30.47;16.03;;;;;;;6.55;100.00;102911.75;5054285;28;20096;-85
2021/10/08 03:43:41;;;;;;;178.50;25.75;;;;;;;6.44;100.00;102900.84;5071526;28;20040;-85
2021/10/08 03:46:09;;;;;;;30.25;16.38;;;;;;;6.53;100.00;102906.53;5052038;28;20044;-85
2021/10/08 03:49:01;;;;;;;39.53;17.55;;;;;;;6.59;100.00;102913.31;5068574;28;20021;-85
2021/10/08 03:51:28;;;;;;;29.92;15.85;;;;;;;6.62;100.00;102907.81;5069799;28;20083;-85
2021/10/08 03:53:55;;;;;;;29.83;16.83;;;;;;;6.62;100.00;102899.00;5069171;28;20364;-82
2021/10/08 03:56:20;;;;;;;30.60;16.00;;;;;;;6.62;100.00;102904.31;5075218;28;20115;-84
2021/10/08 03:58:46;;;;;;;29.73;15.18;;;;;;;6.53;100.00;102897.72;5074728;28;20020;-85
2021/10/08 04:01:13;;;;;;;44.70;17.90;;;;;;;6.48;100.00;102895.28;5040977;28;20169;-86
2021/10/08 04:03:38;;;;;;;25.65;14.55;;;;;;;6.51;100.00;102900.47;5057472;28;20155;-85
2021/10/08 04:06:04;;;;;;;;;;;;;;;6.41;100.00;102891.25;5074792;28;20028;-85
2021/10/08 04:08:30;;;;;;;;;;;;;;;6.44;100.00;102898.19;5056631;28;19939;-85
2021/10/08 04:10:56;;;;;;;36.53;16.00;;;;;;;6.35;100.00;102894.28;5055992;28;19927;-85
2021/10/08 04:13:21;;;;;;;25.40;14.50;;;;;;;6.25;100.00;102898.34;5038656;28;20087;-86
2021/10/08 04:15:47;;;;;;;29.77;15.53;;;;;;;6.13;100.00;102899.84;5055023;28;20279;-85
2021/10/08 04:18:13;;;;;;;29.07;15.47;;;;;;;6.15;100.00;102897.13;5071231;28;20803;-85
2021/10/08 04:20:40;;;;;;;26.65;13.90;;;;;;;6.06;100.00;102899.34;5054893;28;20731;-85
2021/10/08 04:23:07;;;;;;;25.10;14.38;;;;;;;6.08;100.00;102905.38;5055167;28;20028;-85
2021/10/08 04:25:33;;;;;;;22.73;12.50;;;;;;;6.06;100.00;102917.00;5069999;28;20032;-85
2021/10/08 04:27:59;;;;;;;32.30;16.95;;;;;;;6.04;100.00;102910.94;5053851;28;20494;-85
2021/10/08 04:30:25;;;;;;;32.47;15.68;;;;;;;6.03;100.00;102922.50;5036472;28;20170;-85
2021/10/08 04:32:50;;;;;;;30.70;13.70;;;;;;;5.91;100.00;102908.03;5070942;28;20060;-85
2021/10/08 04:35:16;;;;;;;31.50;14.98;;;;;;;5.84;100.00;102907.50;5036045;28;20483;-85
2021/10/08 04:37:43;;;;;;;56.53;17.13;;;;;;;5.78;100.00;102905.16;5036576;28;20032;-85
2021/10/08 04:40:11;;;;;;;60.70;16.80;;;;;;;5.84;100.00;102909.28;5052846;28;20028;-86
2021/10/08 04:42:36;;;;;;;30.77;15.95;;;;;;;5.79;100.00;102906.88;5069230;28;20416;-86
2021/10/08 04:45:03;;;;;;;30.77;14.53;;;;;;;5.74;100.00;102903.63;5052460;28;20066;-85
2021/10/08 04:47:29;;;;;;;28.63;15.25;;;;;;;5.75;100.00;102900.00;5036032;28;20056;-86
2021/10/08 04:49:54;;;;;;;225.33;28.57;;;;;;;5.83;100.00;102918.16;5035063;28;20423;-86
2021/10/08 04:52:21;;;;;;;;;;;;;;;5.89;100.00;102925.81;5035738;28;20035;-85
2021/10/08 04:54:49;;;;;;;306.55;27.35;;;;;;;5.86;100.00;102918.03;5068647;28;19926;-86
2021/10/08 04:57:14;;;;;;;365.05;33.85;;;;;;;5.91;100.00;102923.94;5034978;28;20061;-86
2021/10/08 04:59:40;;;;;;;57.08;28.70;;;;;;;5.90;100.00;102935.50;5051460;28;20427;-85
2021/10/08 05:02:06;;;;;;;43.05;22.60;;;;;;;5.67;100.00;102924.25;5034063;28;20036;-86
2021/10/08 05:04:31;;;;;;;33.60;17.80;;;;;;;5.68;100.00;102931.25;5051047;28;20135;-85
2021/10/08 05:06:58;;;;;;;32.90;17.77;;;;;;;5.64;100.00;102939.44;5035048;28;20044;-86
2021/10/08 05:09:23;;;;;;;38.83;20.07;;;;;;;5.59;100.00;102933.53;5035064;28;20037;-85
2021/10/08 05:11:49;;;;;;;38.55;19.00;;;;;;;5.56;100.00;102936.34;5051038;28;20052;-85
2021/10/08 05:14:15;;;;;;;43.15;20.67;;;;;;;5.50;100.00;102926.88;5034356;28;20142;-85
2021/10/08 05:16:44;;;;;;;42.03;21.90;;;;;;;5.58;100.00;102931.81;5050638;28;20100;-84
2021/10/08 05:19:09;;;;;;;39.22;21.20;;;;;;;5.62;100.00;102921.00;5050798;28;20044;-85
2021/10/08 05:21:38;;;;;;;49.78;24.17;;;;;;;5.61;100.00;102929.00;5034159;28;20360;-85
2021/10/08 05:24:05;;;;;;;38.53;20.42;;;;;;;5.70;100.00;102937.34;5034296;28;20044;-85
2021/10/08 05:26:31;;;;;;;45.70;22.88;;;;;;;5.63;100.00;102938.59;5066934;28;20438;-85
2021/10/08 05:28:57;;;;;;;38.45;18.27;;;;;;;5.54;100.00;102949.66;5067030;28;20036;-85
2021/10/08 05:31:24;;;;;;;38.00;19.58;;;;;;;5.43;100.00;102946.66;5049930;28;20048;-85
2021/10/08 05:33:50;;;;;;;34.07;17.17;;;;;;;5.48;100.00;102942.88;5050693;28;20090;-85
2021/10/08 05:36:15;;;;;;;40.83;20.25;;;;;;;5.51;100.00;102944.50;5033140;28;20343;-84
2021/10/08 05:38:41;;;;;;;31.93;16.97;;;;;;;5.47;100.00;102943.78;5033769;28;20095;-85
2021/10/08 05:41:06;;;;;;;33.03;16.93;;;;;;;5.56;100.00;102939.00;5049534;28;20028;-86
2021/10/08 05:43:32;;;;;;;37.03;18.63;;;;;;;5.64;100.00;102950.03;5050306;28;20047;-85
2021/10/08 05:45:58;;;;;;;31.90;17.50;;;;;;;5.59;100.00;102941.47;5033761;28;20911;-85
2021/10/08 05:48:24;;;;;;;35.95;19.27;;;;;;;5.72;100.00;102942.59;5049992;28;20155;-85
2021/10/08 05:50:49;;;;;;;33.67;17.33;;;;;;;5.83;100.00;102958.81;5033221;28;20033;-84
2021/10/08 05:53:17;;;;;;;38.88;18.42;;;;;;;5.73;100.00;102946.94;5049770;28;20266;-83
2021/10/08 05:55:43;;;;;;;33.38;17.85;;;;;;;5.73;100.00;102949.59;5049842;28;20037;-84
2021/10/08 05:58:09;;;;;;;31.83;17.85;;;;;;;5.74;100.00;102956.63;5067744;28;20357;-83
2021/10/08 06:00:40;;;;;;;45.08;22.67;;;;;;;5.89;100.00;102958.47;5068101;28;20469;-83
2021/10/08 06:03:06;;;;;;;34.92;19.75;;;;;;;5.89;100.00;102961.13;5054011;28;20028;-82
2021/10/08 06:05:37;;;;;;;36.55;18.70;;;;;;;5.97;100.00;102965.22;5070303;28;20090;-85
2021/10/08 06:08:04;;;;;;;87.55;31.55;;;;;;;6.13;100.00;102964.38;5055341;28;20051;-85
2021/10/08 06:10:30;;;;;;;36.33;20.17;;;;;;;6.22;100.00;102984.25;5059119;28;20020;-85
2021/10/08 06:12:56;;;;;;;42.58;21.98;;;;;;;6.21;100.00;102968.44;5072822;28;20021;-88
2021/10/08 06:15:21;;;;;;;38.93;20.67;;;;;;;6.27;100.00;102979.53;5055635;28;20051;-88
2021/10/08 06:17:49;;;;;;;40.00;21.05;;;;;;;6.34;100.00;102977.44;5055825;28;20279;-88
2021/10/08 06:20:14;;;;;;;42.70;23.53;;;;;;;6.47;100.00;102972.34;5039792;28;20061;-89
2021/10/08 06:22:45;;;;;;;40.70;21.30;;;;;;;6.65;100.00;102978.47;5056783;28;20349;-88
2021/10/08 06:25:12;;;;;;;43.30;21.73;;;;;;;6.76;100.00;102982.25;5072401;28;20028;-88
2021/10/08 06:27:38;;;;;;;35.92;18.88;;;;;;;6.85;100.00;102977.41;5073001;28;20086;-87
2021/10/08 06:30:07;;;;;;;32.60;20.17;;;;;;;6.87;100.00;102965.75;5055569;28;20370;-86
2021/10/08 06:32:34;;;;;;;40.22;22.55;;;;;;;7.04;100.00;102982.56;5055726;28;20047;-87
2021/10/08 06:35:00;;;;;;;41.27;23.80;;;;;;;7.28;100.00;102988.28;5054562;28;20028;-86
2021/10/08 06:37:26;;;;;;;145.40;37.33;;;;;;;7.50;100.00;102995.94;5072382;28;20309;-87
2021/10/08 06:39:52;;;;;;;63.85;27.23;;;;;;;7.91;100.00;103006.81;5072736;28;20115;-89
2021/10/08 06:42:24;;;;;;;41.08;22.27;;;;;;;8.10;100.00;102997.75;5072216;28;20131;-87
2021/10/08 06:44:54;;;;;;;46.88;22.58;;;;;;;8.48;100.00;103023.91;5055630;28;20079;-88
2021/10/08 06:47:23;;;;;;;70.20;24.23;;;;;;;8.65;100.00;103026.41;5072290;28;20119;-86
2021/10/08 06:49:49;;;;;;;36.08;20.70;;;;;;;8.85;100.00;103009.19;5055280;28;20044;-87
2021/10/08 06:52:14;;;;;;;31.27;16.13;;;;;;;9.06;100.00;103004.28;5055324;28;20036;-87
2021/10/08 06:54:41;;;;;;;28.90;16.08;;;;;;;9.45;100.00;103013.34;5034744;28;20033;-86
2021/10/08 06:57:08;;;;;;;22.88;14.63;;;;;;;9.57;100.00;103023.22;5054116;28;20036;-86
2021/10/08 06:59:34;;;;;;;26.98;16.40;;;;;;;9.79;100.00;103040.50;5054500;28;20036;-85
2021/10/08 07:02:02;;;;;;;30.20;16.75;;;;;;;9.86;100.00;103037.31;5071306;28;20105;-85
2021/10/08 07:04:28;;;;;;;27.63;16.98;;;;;;;10.29;100.00;103036.25;5054530;28;20127;-85
2021/10/08 07:06:53;;;;;;;23.60;15.13;;;;;;;10.55;100.00;103042.47;5028287;28;20039;-86
2021/10/08 07:09:32;;;;;;;20.83;13.88;;;;;;;10.49;100.00;103043.78;5054758;28;20086;-87
2021/10/08 07:11:58;;;;;;;17.95;13.15;;;;;;;10.64;100.00;103015.13;5071536;28;20056;-88
2021/10/08 07:14:24;;;;;;;20.03;12.37;;;;;;;10.92;100.00;103019.38;5054759;28;20040;-89
2021/10/08 07:16:51;;;;;;;23.30;14.93;;;;;;;10.78;100.00;102998.13;5072099;28;20075;-92
2021/10/08 07:19:16;;;;;;;23.17;16.45;;;;;;;10.90;100.00;102991.06;5054739;28;20066;-88
2021/10/08 07:21:42;;;;;;;26.03;15.40;;;;;;;10.97;100.00;103001.19;5054775;28;20465;-90
2021/10/08 07:24:09;;;;;;;24.10;15.10;;;;;;;11.23;100.00;103009.13;5071905;28;20025;-90
2021/10/08 07:26:35;;;;;;;28.00;15.57;;;;;;;11.61;100.00;103000.09;5054449;28;20369;-90
2021/10/08 07:29:00;;;;;;;29.33;19.23;;;;;;;11.50;100.00;103000.06;5071202;28;20032;-90
2021/10/08 07:31:26;;;;;;;27.00;18.20;;;;;;;11.52;100.00;103000.78;5054690;28;20036;-91
2021/10/08 07:33:52;;;;;;;27.60;17.88;;;;;;;11.49;100.00;103001.03;5071135;28;20085;-91
2021/10/08 07:36:18;;;;;;;34.42;20.83;;;;;;;11.36;100.00;103006.44;5071988;28;20033;-89
2021/10/08 07:38:43;;;;;;;29.90;18.83;;;;;;;11.52;100.00;103016.84;5072028;28;20037;-89
2021/10/08 07:41:09;;;;;;;32.23;21.00;;;;;;;11.60;100.00;103025.16;5054405;28;20478;-88
2021/10/08 07:43:36;;;;;;;37.08;21.65;;;;;;;11.67;100.00;103025.56;5054451;28;20499;-89
2021/10/08 07:46:03;;;;;;;31.73;20.55;;;;;;;12.72;100.00;103045.28;5054335;28;20029;-88
2021/10/08 07:48:29;;;;;;;34.75;22.05;;;;;;;12.19;100.00;103022.50;5054396;28;20036;-88
2021/10/08 07:50:54;;;;;;;34.40;21.38;;;;;;;12.24;100.00;103031.06;5054133;28;20051;-89
2021/10/08 07:53:20;;;;;;;35.10;20.80;;;;;;;12.08;100.00;103038.56;5054371;28;20024;-91
2021/10/08 07:55:45;;;;;;;40.53;21.90;;;;;;;11.80;100.00;103037.94;5071110;28;20043;-90
2021/10/08 07:58:10;;;;;;;41.07;22.50;;;;;;;11.41;100.00;103047.91;5037570;28;20037;-91
2021/10/08 08:00:36;;;;;;;40.73;23.37;;;;;;;11.56;100.00;103045.09;5054173;28;20111;-90
2021/10/08 08:03:01;;;;;;;39.60;22.23;;;;;;;11.41;100.00;103039.91;5053721;28;20431;-90
2021/10/08 08:05:27;;;;;;;41.47;22.90;;;;;;;11.18;100.00;103046.06;5070435;28;20058;-88
2021/10/08 08:07:52;;;;;;;43.37;22.77;;;;;;;11.37;100.00;103057.13;5071434;28;20086;-89
2021/10/08 08:10:17;;;;;;;38.30;22.17;;;;;;;11.38;100.00;103063.34;5053793;28;20531;-88
2021/10/08 08:12:43;;;;;;;37.83;20.02;;;;;;;11.62;100.00;103063.38;5071435;28;20040;-88
2021/10/08 08:15:09;;;;;;;38.87;20.27;;;;;;;11.94;100.00;103060.13;5071278;28;20040;-90
2021/10/08 08:17:35;;;;;;;30.73;18.20;;;;;;;12.04;100.00;103051.31;5037209;28;20047;-86
2021/10/08 08:20:02;;;;;;;32.53;20.25;;;;;;;12.09;100.00;103034.91;5053319;28;20018;-85
2021/10/08 08:22:28;;;;;;;32.33;19.55;;;;;;;11.92;100.00;103036.19;5070124;28;20037;-85
2021/10/08 08:24:53;;;;;;;35.00;19.97;;;;;;;11.92;100.00;103040.69;5070421;28;20119;-86
2021/10/08 08:27:19;;;;;;;32.13;17.48;;;;;;;12.01;100.00;103042.66;5071057;28;20037;-84
2021/10/08 08:29:44;;;;;;;30.63;18.63;;;;;;;11.90;100.00;103031.91;5053371;28;20029;-86
2021/10/08 08:32:10;;;;;;;31.73;18.47;;;;;;;11.87;100.00;103053.50;5053263;28;20098;-85
2021/10/08 08:34:35;;;;;;;28.60;15.60;;;;;;;11.66;100.00;103051.47;5034984;28;20056;-83
2021/10/08 08:37:01;;;;;;;28.35;17.67;;;;;;;12.06;100.00;103077.97;5068007;28;20030;-82
2021/10/08 08:39:26;;;;;;;35.20;18.50;;;;;;;12.14;100.00;103077.41;5034711;28;20063;-82
2021/10/08 08:41:52;;;;;;;28.40;17.23;;;;;;;12.41;100.00;103079.81;5068428;28;20469;-82
2021/10/08 08:44:18;;;;;;;26.35;16.00;;;;;;;12.54;100.00;103075.19;5051060;28;20743;-82
2021/10/08 08:46:44;;;;;;;26.85;15.57;;;;;;;12.43;100.00;103059.09;5069527;28;20105;-82
2021/10/08 08:49:10;;;;;;;26.10;14.70;;;;;;;12.47;100.00;103065.91;5068258;28;20036;-84
2021/10/08 08:51:35;;;;;;;32.53;18.67;;;;;;;11.92;100.00;103056.75;5053007;28;20094;-86
2021/10/08 08:54:06;;;;;;;28.45;17.65;;;;;;;12.04;100.00;103061.19;5069137;28;20289;-86
2021/10/08 08:56:32;;;;;;;30.48;16.65;;;;;;;11.92;100.00;103059.44;5070388;28;20658;-84
2021/10/08 08:59:03;;;;;;;30.38;16.63;;;;;;;11.47;100.00;103067.16;5052843;28;20590;-85
2021/10/08 09:01:29;;;;;;;32.50;16.42;;;;;;;11.29;100.00;103072.88;5069309;28;20055;-86
2021/10/08 09:04:06;;;;;;;26.00;15.32;;;;;;;11.41;100.00;103089.88;5070665;28;20024;-86
2021/10/08 09:06:36;;;;;;;25.20;13.25;;;;;;;11.33;100.00;103086.88;5070018;28;20036;-87
2021/10/08 09:09:15;;;;;;;26.83;12.38;;;;;;;11.18;100.00;103096.84;5070742;28;20072;-87
2021/10/08 09:11:41;;;;;;;28.38;13.32;;;;;;;11.13;100.00;103099.00;5070809;28;20522;-88
2021/10/08 09:14:26;;;;;;;33.72;12.63;;;;;;;10.92;100.00;103112.06;5070458;28;20028;-86
2021/10/08 09:17:11;;;;;;;26.15;12.07;;;;;;;10.98;100.00;103115.16;5069935;28;20377;-87
2021/10/08 09:19:52;;;;;;;25.10;11.27;;;;;;;10.95;100.00;103119.84;5052975;28;20089;-87
2021/10/08 09:22:24;;;;;;;20.75;10.95;;;;;;;11.03;100.00;103124.66;5070538;28;20047;-85
2021/10/08 09:24:50;;;;;;;19.02;10.43;;;;;;;11.07;100.00;103131.50;5069684;28;20067;-87
2021/10/08 09:27:19;;;;;;;23.13;11.98;;;;;;;11.24;100.00;103125.84;5036740;28;20101;-88
2021/10/08 09:29:50;;;;;;;25.05;12.43;;;;;;;11.22;100.00;103129.59;5049725;28;20044;-88
2021/10/08 09:32:16;;;;;;;26.35;13.73;;;;;;;11.26;100.00;103129.28;5063710;28;20116;-90
2021/10/08 09:34:42;;;;;;;25.80;12.38;;;;;;;11.16;100.00;103117.50;5070197;28;20335;-91
2021/10/08 09:37:09;;;;;;;29.13;13.97;;;;;;;11.11;100.00;103112.47;5072469;28;20062;-89
2021/10/08 09:39:37;;;;;;;25.17;12.32;;;;;;;11.17;100.00;103120.06;5056700;28;20069;-91
2021/10/08 09:42:09;;;;;;;31.83;15.18;;;;;;;11.20;100.00;103121.66;5057170;28;20063;-91
2021/10/08 09:44:45;;;;;;;29.95;14.85;;;;;;;11.17;100.00;103124.56;5053392;28;20032;-88
2021/10/08 09:47:12;;;;;;;26.73;13.13;;;;;;;11.31;100.00;103127.13;5056807;28;20040;-88
2021/10/08 09:49:40;;;;;;;31.02;14.05;;;;;;;11.24;100.00;103125.84;5056546;28;20719;-88
2021/10/08 09:52:29;;;;;;;28.63;15.15;;;;;;;11.39;100.00;103124.75;5076283;28;20512;-88
2021/10/08 09:55:06;;;;;;;29.55;15.55;;;;;;;11.48;100.00;103117.88;5083598;28;20365;-88
2021/10/08 09:57:46;;;;;;;28.90;16.70;;;;;;;11.69;100.00;103115.47;5056931;28;20043;-88
2021/10/08 10:01:06;;;;;;;33.60;16.05;;;;;;;11.70;100.00;103102.94;5072875;28;20179;-86
2021/10/08 10:03:32;;;;;;;29.30;18.02;;;;;;;11.73;100.00;103095.56;5012646;28;20040;-85
2021/10/08 10:06:04;;;;;;;38.13;18.90;;;;;;;11.78;100.00;103090.72;5055613;28;20032;-85
2021/10/08 10:08:30;;;;;;;31.17;17.83;;;;;;;11.64;100.00;103085.53;5056335;28;20037;-87
2021/10/08 10:10:56;;;;;;;34.80;17.97;;;;;;;11.87;100.00;103093.66;5072953;28;20032;-85
2021/10/08 10:13:22;;;;;;;31.45;18.52;;;;;;;12.12;100.00;103074.81;5073709;28;20032;-86
2021/10/08 10:15:48;;;;;;;22.85;15.18;;;;;;;12.39;100.00;103077.25;5056165;28;20032;-86
2021/10/08 10:18:19;;;;;;;21.55;12.70;;;;;;;12.52;100.00;103065.56;5055729;28;20039;-83
2021/10/08 10:20:47;;;;;;;22.73;14.43;;;;;;;12.67;100.00;103053.66;5055203;28;20041;-86
2021/10/08 10:23:15;;;;;;;20.30;12.90;;;;;;;12.70;100.00;103048.06;5055264;28;20512;-83
2021/10/08 10:25:41;;;;;;;20.77;13.05;;;;;;;12.88;100.00;103051.13;5071672;28;20036;-84
2021/10/08 10:28:07;;;;;;;22.33;13.88;;;;;;;12.83;99.09;103053.28;5054577;28;20029;-85
2021/10/08 10:30:33;;;;;;;19.60;13.30;;;;;;;13.56;97.88;103051.94;5072350;28;20461;-84
2021/10/08 10:33:01;;;;;;;;;;;;;;;14.00;95.34;103046.50;5071968;28;20032;-83
2021/10/08 10:35:44;;;;;;;17.17;11.85;;;;;;;13.61;93.84;103043.50;5071944;28;19908;-84
2021/10/08 10:38:20;;;;;;;15.93;11.48;;;;;;;13.49;93.73;103045.38;5071306;28;20106;-84
2021/10/08 10:40:46;;;;;;;18.13;12.10;;;;;;;13.67;93.66;103041.16;5070685;28;20040;-77
2021/10/08 10:43:15;;;;;;;18.77;12.57;;;;;;;13.57;93.69;103044.72;5070381;28;20350;-78
2021/10/08 10:46:06;;;;;;;18.60;12.30;;;;;;;13.51;94.39;103040.72;5052768;28;20025;-79
2021/10/08 10:48:42;;;;;;;15.93;11.05;;;;;;;13.29;93.29;103037.09;5069115;28;20862;-79
2021/10/08 10:51:10;;;;;;;16.77;11.63;;;;;;;13.62;93.51;103042.50;5052651;28;20043;-78
2021/10/08 10:53:52;;;;;;;16.88;11.25;;;;;;;13.47;92.98;103050.84;5052535;28;20036;-78
2021/10/08 10:56:36;;;;;;;13.07;10.63;;;;;;;13.88;92.52;103046.59;5052454;28;20036;-78
2021/10/08 10:59:38;;;;;;;15.52;10.50;;;;;;;14.02;91.70;103047.25;5069184;28;20534;-78
2021/10/08 11:02:08;;;;;;;16.33;11.07;;;;;;;14.02;90.73;103053.47;5030824;28;20052;-82
2021/10/08 11:04:36;;;;;;;15.93;9.82;;;;;;;14.47;90.93;103047.84;5053810;28;20489;-83
2021/10/08 11:07:07;;;;;;;16.15;9.48;;;;;;;15.75;84.72;103041.97;5071110;28;20020;-83
2021/10/08 11:09:33;;;;;;;15.77;9.15;;;;;;;16.06;81.90;103025.66;5069884;28;20040;-82
2021/10/08 11:12:44;;;;;;;12.05;8.77;;;;;;;15.71;81.80;103017.19;5053276;28;20129;-83
2021/10/08 11:15:19;;;;;;;11.63;8.80;;;;;;;16.02;83.66;103034.03;5051530;28;20102;-82
2021/10/08 11:18:02;;;;;;;14.25;8.95;;;;;;;17.42;76.92;103019.75;5069635;28;20032;-83
2021/10/08 11:20:31;;;;;;;12.65;7.93;;;;;;;18.48;73.57;103015.28;5070865;28;20063;-82
2021/10/08 11:23:01;;;;;;;12.85;7.70;;;;;;;16.34;76.02;103019.38;5069691;28;20032;-82
2021/10/08 11:25:29;;;;;;;11.88;7.35;;;;;;;16.61;77.70;103033.91;5052243;28;20829;-83
2021/10/08 11:27:55;;;;;;;11.57;7.72;;;;;;;16.50;77.88;103021.44;5069508;28;20492;-82
2021/10/08 11:30:24;;;;;;;13.40;8.70;;;;;;;15.72;79.31;103039.56;5069360;28;20060;-82
2021/10/08 11:32:52;;;;;;;9.48;7.53;;;;;;;15.48;79.68;103030.00;5069635;28;20055;-82
2021/10/08 11:35:27;;;;;;;11.40;7.43;;;;;;;15.02;81.58;103041.34;5069802;28;20045;-82
2021/10/08 11:37:53;;;;;;;11.80;7.63;;;;;;;14.83;82.81;103048.34;5053124;28;20717;-82
2021/10/08 11:40:32;;;;;;;10.90;7.47;;;;;;;15.24;83.69;103042.97;5052671;28;20043;-83
2021/10/08 11:43:02;;;;;;;10.88;7.15;;;;;;;15.44;81.96;103033.97;5070512;28;20029;-82
2021/10/08 11:46:29;;;;;;;9.32;7.53;;;;;;;15.56;81.22;103023.91;5052835;28;20365;-84
2021/10/08 11:48:40;;;;;;;12.13;8.07;;;;;;;15.42;80.98;103033.25;5056849;28;20123;-82
2021/10/08 11:51:07;;;;;;;10.68;7.22;;;;;;;15.97;80.76;103047.09;5052591;28;20037;-83